sensor_id;sensor_type;location;lat;lon;timestamp;temperature;humidity
27534;DHT22;14973;51.460;7.008;2022-11-04T00:01:47;11.40;97.70
27534;DHT22;14973;51.460;7.008;2022-11-04T00:04:15;11.40;98.60
27534;DHT22;14973;51.460;7.008;2022-11-04T00:06:41;11.40;99.10
27534;DHT22;14973;51.460;7.008;2022-11-04T00:09:08;11.40;99.90
27534;DHT22;14973;51.460;7.008;2022-11-04T00:11:35;11.30;99.40
27534;DHT22;14973;51.460;7.008;2022-11-04T00:14:19;11.30;99.60
27534;DHT22;14973;51.460;7.008;2022-11-04T00:16:45;11.30;99.90
27534;DHT22;14973;51.460;7.008;2022-11-04T00:19:30;11.30;99.30
27534;DHT22;14973;51.460;7.008;2022-11-04T00:22:18;11.10;98.70
27534;DHT22;14973;51.460;7.008;2022-11-04T00:25:03;11.10;98.30
27534;DHT22;14973;51.460;7.008;2022-11-04T00:27:47;11.10;98.20
27534;DHT22;14973;51.460;7.008;2022-11-04T00:30:31;11.10;97.50
27534;DHT22;14973;51.460;7.008;2022-11-04T00:32:56;11.00;98.20
27534;DHT22;14973;51.460;7.008;2022-11-04T00:35:46;10.90;98.70
27534;DHT22;14973;51.460;7.008;2022-11-04T00:38:12;10.90;98.80
27534;DHT22;14973;51.460;7.008;2022-11-04T00:40:37;11.00;98.60
27534;DHT22;14973;51.460;7.008;2022-11-04T00:43:03;10.80;98.70
27534;DHT22;14973;51.460;7.008;2022-11-04T00:45:28;10.80;99.20
27534;DHT22;14973;51.460;7.008;2022-11-04T00:47:54;10.80;99.40
27534;DHT22;14973;51.460;7.008;2022-11-04T00:50:20;10.90;99.40
27534;DHT22;14973;51.460;7.008;2022-11-04T00:52:45;10.90;98.80
27534;DHT22;14973;51.460;7.008;2022-11-04T00:55:11;10.90;98.10
27534;DHT22;14973;51.460;7.008;2022-11-04T00:57:36;10.90;97.60
27534;DHT22;14973;51.460;7.008;2022-11-04T01:00:02;11.00;97.70
27534;DHT22;14973;51.460;7.008;2022-11-04T01:02:28;11.00;97.80
27534;DHT22;14973;51.460;7.008;2022-11-04T01:04:54;11.00;97.40
27534;DHT22;14973;51.460;7.008;2022-11-04T01:07:19;11.00;97.60
27534;DHT22;14973;51.460;7.008;2022-11-04T01:09:45;10.90;98.30
27534;DHT22;14973;51.460;7.008;2022-11-04T01:12:10;10.90;98.30
27534;DHT22;14973;51.460;7.008;2022-11-04T01:14:36;11.10;98.40
27534;DHT22;14973;51.460;7.008;2022-11-04T01:17:02;11.00;98.90
27534;DHT22;14973;51.460;7.008;2022-11-04T01:19:27;10.90;99.00
27534;DHT22;14973;51.460;7.008;2022-11-04T01:21:53;11.00;99.70
27534;DHT22;14973;51.460;7.008;2022-11-04T01:24:19;11.10;99.90
27534;DHT22;14973;51.460;7.008;2022-11-04T01:26:45;11.00;99.90
27534;DHT22;14973;51.460;7.008;2022-11-04T01:29:10;10.90;99.90
27534;DHT22;14973;51.460;7.008;2022-11-04T01:31:36;10.80;99.90
27534;DHT22;14973;51.460;7.008;2022-11-04T01:34:01;10.80;99.90
27534;DHT22;14973;51.460;7.008;2022-11-04T01:36:27;10.80;99.90
27534;DHT22;14973;51.460;7.008;2022-11-04T01:38:56;10.60;99.90
27534;DHT22;14973;51.460;7.008;2022-11-04T01:41:28;10.70;99.90
27534;DHT22;14973;51.460;7.008;2022-11-04T01:43:56;10.70;99.90
27534;DHT22;14973;51.460;7.008;2022-11-04T01:46:34;10.70;99.90
27534;DHT22;14973;51.460;7.008;2022-11-04T01:49:08;10.70;99.90
27534;DHT22;14973;51.460;7.008;2022-11-04T01:51:35;10.70;99.90
27534;DHT22;14973;51.460;7.008;2022-11-04T01:54:03;10.80;99.90
27534;DHT22;14973;51.460;7.008;2022-11-04T01:56:29;10.70;99.90
27534;DHT22;14973;51.460;7.008;2022-11-04T01:58:58;10.90;99.90
27534;DHT22;14973;51.460;7.008;2022-11-04T02:01:27;10.70;99.90
27534;DHT22;14973;51.460;7.008;2022-11-04T02:03:56;10.90;99.90
27534;DHT22;14973;51.460;7.008;2022-11-04T02:06:44;10.80;99.90
27534;DHT22;14973;51.460;7.008;2022-11-04T02:09:11;10.80;99.90
27534;DHT22;14973;51.460;7.008;2022-11-04T02:11:37;10.80;99.90
27534;DHT22;14973;51.460;7.008;2022-11-04T02:14:21;10.80;99.90
27534;DHT22;14973;51.460;7.008;2022-11-04T02:16:47;10.80;99.90
27534;DHT22;14973;51.460;7.008;2022-11-04T02:28:11;10.50;99.90
27534;DHT22;14973;51.460;7.008;2022-11-04T02:33:36;10.30;99.90
27534;DHT22;14973;51.460;7.008;2022-11-04T02:36:17;10.40;99.90
27534;DHT22;14973;51.460;7.008;2022-11-04T02:38:50;10.30;99.90
27534;DHT22;14973;51.460;7.008;2022-11-04T02:41:20;10.20;99.90
27534;DHT22;14973;51.460;7.008;2022-11-04T02:44:00;10.20;99.90
27534;DHT22;14973;51.460;7.008;2022-11-04T02:46:34;10.00;99.90
27534;DHT22;14973;51.460;7.008;2022-11-04T02:49:10;10.10;99.90
27534;DHT22;14973;51.460;7.008;2022-11-04T02:51:42;10.00;99.90
27534;DHT22;14973;51.460;7.008;2022-11-04T02:56:47;10.00;99.90
27534;DHT22;14973;51.460;7.008;2022-11-04T02:59:45;9.90;99.90
27534;DHT22;14973;51.460;7.008;2022-11-04T03:02:17;9.90;99.90
27534;DHT22;14973;51.460;7.008;2022-11-04T03:04:46;9.90;99.90
27534;DHT22;14973;51.460;7.008;2022-11-04T03:07:14;9.80;99.90
27534;DHT22;14973;51.460;7.008;2022-11-04T03:09:45;9.80;99.90
27534;DHT22;14973;51.460;7.008;2022-11-04T03:12:15;9.80;99.90
27534;DHT22;14973;51.460;7.008;2022-11-04T03:14:47;9.70;99.90
27534;DHT22;14973;51.460;7.008;2022-11-04T03:17:38;9.80;99.90
27534;DHT22;14973;51.460;7.008;2022-11-04T03:20:09;9.80;99.90
27534;DHT22;14973;51.460;7.008;2022-11-04T03:22:36;9.70;99.90
27534;DHT22;14973;51.460;7.008;2022-11-04T03:25:07;9.70;99.90
27534;DHT22;14973;51.460;7.008;2022-11-04T03:27:50;9.70;99.90
27534;DHT22;14973;51.460;7.008;2022-11-04T03:30:20;9.70;99.90
27534;DHT22;14973;51.460;7.008;2022-11-04T03:35:51;9.60;99.90
27534;DHT22;14973;51.460;7.008;2022-11-04T03:38:16;9.60;99.90
27534;DHT22;14973;51.460;7.008;2022-11-04T03:40:42;9.70;99.90
27534;DHT22;14973;51.460;7.008;2022-11-04T03:43:19;9.60;99.90
27534;DHT22;14973;51.460;7.008;2022-11-04T03:45:45;9.70;99.90
27534;DHT22;14973;51.460;7.008;2022-11-04T03:48:11;9.60;99.90
27534;DHT22;14973;51.460;7.008;2022-11-04T03:50:42;9.60;99.90
27534;DHT22;14973;51.460;7.008;2022-11-04T03:53:09;9.60;99.90
27534;DHT22;14973;51.460;7.008;2022-11-04T04:04:28;9.40;99.90
27534;DHT22;14973;51.460;7.008;2022-11-04T04:07:04;9.40;99.90
27534;DHT22;14973;51.460;7.008;2022-11-04T04:09:49;9.30;99.90
27534;DHT22;14973;51.460;7.008;2022-11-04T04:12:35;9.30;99.90
27534;DHT22;14973;51.460;7.008;2022-11-04T04:15:10;9.30;99.90
27534;DHT22;14973;51.460;7.008;2022-11-04T04:18:08;9.20;99.90
27534;DHT22;14973;51.460;7.008;2022-11-04T04:20:37;9.30;99.90
27534;DHT22;14973;51.460;7.008;2022-11-04T04:23:16;9.30;99.90
27534;DHT22;14973;51.460;7.008;2022-11-04T04:26:05;9.30;99.90
27534;DHT22;14973;51.460;7.008;2022-11-04T04:28:51;9.20;99.90
27534;DHT22;14973;51.460;7.008;2022-11-04T04:31:17;9.20;99.90
27534;DHT22;14973;51.460;7.008;2022-11-04T04:34:05;9.30;99.90
27534;DHT22;14973;51.460;7.008;2022-11-04T04:36:36;9.30;99.90
27534;DHT22;14973;51.460;7.008;2022-11-04T04:39:05;9.20;99.90
27534;DHT22;14973;51.460;7.008;2022-11-04T04:41:50;9.10;99.90
27534;DHT22;14973;51.460;7.008;2022-11-04T04:44:35;9.10;99.90
27534;DHT22;14973;51.460;7.008;2022-11-04T04:47:22;9.10;99.90
27534;DHT22;14973;51.460;7.008;2022-11-04T04:49:53;9.20;99.90
27534;DHT22;14973;51.460;7.008;2022-11-04T04:52:19;9.10;99.90
27534;DHT22;14973;51.460;7.008;2022-11-04T04:54:46;9.10;99.90
27534;DHT22;14973;51.460;7.008;2022-11-04T04:57:12;9.20;99.90
27534;DHT22;14973;51.460;7.008;2022-11-04T04:59:38;9.10;99.90
27534;DHT22;14973;51.460;7.008;2022-11-04T05:02:03;9.20;99.90
27534;DHT22;14973;51.460;7.008;2022-11-04T05:04:29;9.20;99.90
27534;DHT22;14973;51.460;7.008;2022-11-04T05:06:54;9.20;99.90
27534;DHT22;14973;51.460;7.008;2022-11-04T05:09:20;9.20;99.90
27534;DHT22;14973;51.460;7.008;2022-11-04T05:11:46;9.10;99.90
27534;DHT22;14973;51.460;7.008;2022-11-04T05:14:11;9.10;99.90
27534;DHT22;14973;51.460;7.008;2022-11-04T05:16:37;9.10;99.90
27534;DHT22;14973;51.460;7.008;2022-11-04T05:19:03;9.10;99.90
27534;DHT22;14973;51.460;7.008;2022-11-04T05:21:28;9.10;99.90
27534;DHT22;14973;51.460;7.008;2022-11-04T05:23:54;9.10;99.90
27534;DHT22;14973;51.460;7.008;2022-11-04T05:26:19;9.10;99.90
27534;DHT22;14973;51.460;7.008;2022-11-04T05:28:45;9.30;99.90
27534;DHT22;14973;51.460;7.008;2022-11-04T05:31:11;9.00;99.90
27534;DHT22;14973;51.460;7.008;2022-11-04T05:33:37;9.00;99.90
27534;DHT22;14973;51.460;7.008;2022-11-04T05:36:14;9.00;99.90
27534;DHT22;14973;51.460;7.008;2022-11-04T05:38:40;9.00;99.90
27534;DHT22;14973;51.460;7.008;2022-11-04T05:41:08;9.00;99.90
27534;DHT22;14973;51.460;7.008;2022-11-04T05:43:34;8.90;99.90
27534;DHT22;14973;51.460;7.008;2022-11-04T05:46:00;9.00;99.90
27534;DHT22;14973;51.460;7.008;2022-11-04T05:48:27;9.30;99.90
27534;DHT22;14973;51.460;7.008;2022-11-04T05:50:53;9.00;99.90
27534;DHT22;14973;51.460;7.008;2022-11-04T05:53:19;9.10;99.90
27534;DHT22;14973;51.460;7.008;2022-11-04T05:55:44;8.90;99.90
27534;DHT22;14973;51.460;7.008;2022-11-04T05:58:10;9.00;99.90
27534;DHT22;14973;51.460;7.008;2022-11-04T06:00:36;8.90;99.90
27534;DHT22;14973;51.460;7.008;2022-11-04T06:03:02;8.90;99.90
27534;DHT22;14973;51.460;7.008;2022-11-04T06:05:27;9.00;99.90
27534;DHT22;14973;51.460;7.008;2022-11-04T06:07:54;9.10;99.90
27534;DHT22;14973;51.460;7.008;2022-11-04T06:10:20;9.00;99.90
27534;DHT22;14973;51.460;7.008;2022-11-04T06:12:46;9.00;99.90
27534;DHT22;14973;51.460;7.008;2022-11-04T06:15:11;9.10;99.90
27534;DHT22;14973;51.460;7.008;2022-11-04T06:17:37;8.90;99.90
27534;DHT22;14973;51.460;7.008;2022-11-04T06:20:04;9.20;99.90
27534;DHT22;14973;51.460;7.008;2022-11-04T06:22:31;9.20;99.90
27534;DHT22;14973;51.460;7.008;2022-11-04T06:24:56;9.30;99.90
27534;DHT22;14973;51.460;7.008;2022-11-04T06:27:22;9.30;99.90
27534;DHT22;14973;51.460;7.008;2022-11-04T06:29:48;9.40;99.90
27534;DHT22;14973;51.460;7.008;2022-11-04T06:32:16;9.50;99.90
27534;DHT22;14973;51.460;7.008;2022-11-04T06:34:42;9.50;99.90
27534;DHT22;14973;51.460;7.008;2022-11-04T06:37:08;9.50;99.90
27534;DHT22;14973;51.460;7.008;2022-11-04T06:39:34;9.50;99.90
27534;DHT22;14973;51.460;7.008;2022-11-04T06:42:00;9.60;99.90
27534;DHT22;14973;51.460;7.008;2022-11-04T06:44:26;9.60;99.90
27534;DHT22;14973;51.460;7.008;2022-11-04T06:46:51;9.60;99.90
27534;DHT22;14973;51.460;7.008;2022-11-04T06:49:19;9.70;99.90
27534;DHT22;14973;51.460;7.008;2022-11-04T06:51:46;9.70;99.90
27534;DHT22;14973;51.460;7.008;2022-11-04T06:54:12;9.70;99.90
27534;DHT22;14973;51.460;7.008;2022-11-04T06:56:38;9.80;99.20
27534;DHT22;14973;51.460;7.008;2022-11-04T06:59:04;9.80;98.00
27534;DHT22;14973;51.460;7.008;2022-11-04T07:01:33;9.80;98.10
27534;DHT22;14973;51.460;7.008;2022-11-04T07:03:59;9.90;97.50
27534;DHT22;14973;51.460;7.008;2022-11-04T07:06:26;9.90;96.30
27534;DHT22;14973;51.460;7.008;2022-11-04T07:08:56;10.00;95.30
27534;DHT22;14973;51.460;7.008;2022-11-04T07:11:22;10.00;96.00
27534;DHT22;14973;51.460;7.008;2022-11-04T07:13:49;10.10;95.60
27534;DHT22;14973;51.460;7.008;2022-11-04T07:16:16;10.10;94.10
27534;DHT22;14973;51.460;7.008;2022-11-04T07:18:42;10.10;93.30
27534;DHT22;14973;51.460;7.008;2022-11-04T07:21:08;10.20;92.40
27534;DHT22;14973;51.460;7.008;2022-11-04T07:23:34;10.30;90.90
27534;DHT22;14973;51.460;7.008;2022-11-04T07:26:01;10.30;90.00
27534;DHT22;14973;51.460;7.008;2022-11-04T07:28:27;10.40;89.80
27534;DHT22;14973;51.460;7.008;2022-11-04T07:30:56;10.50;86.00
27534;DHT22;14973;51.460;7.008;2022-11-04T07:33:22;10.60;84.30
27534;DHT22;14973;51.460;7.008;2022-11-04T07:35:48;10.70;79.50
27534;DHT22;14973;51.460;7.008;2022-11-04T07:38:14;10.80;79.60
27534;DHT22;14973;51.460;7.008;2022-11-04T07:40:39;11.00;72.20
27534;DHT22;14973;51.460;7.008;2022-11-04T07:43:05;11.30;63.10
27534;DHT22;14973;51.460;7.008;2022-11-04T07:45:31;11.40;58.30
27534;DHT22;14973;51.460;7.008;2022-11-04T07:47:57;11.50;55.10
27534;DHT22;14973;51.460;7.008;2022-11-04T07:50:22;11.50;55.50
27534;DHT22;14973;51.460;7.008;2022-11-04T07:52:48;11.50;53.10
27534;DHT22;14973;51.460;7.008;2022-11-04T07:55:16;11.50;54.80
27534;DHT22;14973;51.460;7.008;2022-11-04T07:57:43;11.50;50.80
27534;DHT22;14973;51.460;7.008;2022-11-04T08:00:10;11.50;51.20
27534;DHT22;14973;51.460;7.008;2022-11-04T08:02:36;11.40;52.70
27534;DHT22;14973;51.460;7.008;2022-11-04T08:05:02;11.40;53.10
27534;DHT22;14973;51.460;7.008;2022-11-04T08:07:27;11.50;52.10
27534;DHT22;14973;51.460;7.008;2022-11-04T08:09:53;11.40;54.50
27534;DHT22;14973;51.460;7.008;2022-11-04T08:12:19;11.40;51.50
27534;DHT22;14973;51.460;7.008;2022-11-04T08:14:46;11.40;58.10
27534;DHT22;14973;51.460;7.008;2022-11-04T08:17:12;11.40;61.70
27534;DHT22;14973;51.460;7.008;2022-11-04T08:19:37;11.40;63.00
27534;DHT22;14973;51.460;7.008;2022-11-04T08:22:04;11.30;70.80
27534;DHT22;14973;51.460;7.008;2022-11-04T08:24:29;11.20;77.10
27534;DHT22;14973;51.460;7.008;2022-11-04T08:26:55;11.10;85.80
27534;DHT22;14973;51.460;7.008;2022-11-04T08:29:21;11.20;90.60
27534;DHT22;14973;51.460;7.008;2022-11-04T08:31:46;11.30;91.20
27534;DHT22;14973;51.460;7.008;2022-11-04T08:34:12;11.40;82.20
27534;DHT22;14973;51.460;7.008;2022-11-04T08:36:39;11.50;71.00
27534;DHT22;14973;51.460;7.008;2022-11-04T08:39:06;11.60;62.70
27534;DHT22;14973;51.460;7.008;2022-11-04T08:41:32;11.60;69.20
27534;DHT22;14973;51.460;7.008;2022-11-04T08:43:59;11.60;69.10
27534;DHT22;14973;51.460;7.008;2022-11-04T08:46:31;11.60;66.90
27534;DHT22;14973;51.460;7.008;2022-11-04T08:48:57;11.70;63.60
27534;DHT22;14973;51.460;7.008;2022-11-04T08:51:24;11.70;60.40
27534;DHT22;14973;51.460;7.008;2022-11-04T08:53:51;11.90;59.50
27534;DHT22;14973;51.460;7.008;2022-11-04T08:56:20;11.80;63.60
27534;DHT22;14973;51.460;7.008;2022-11-04T08:58:46;12.00;59.80
27534;DHT22;14973;51.460;7.008;2022-11-04T09:01:12;12.00;58.70
27534;DHT22;14973;51.460;7.008;2022-11-04T09:03:39;12.10;56.10
27534;DHT22;14973;51.460;7.008;2022-11-04T09:06:10;12.10;54.00
27534;DHT22;14973;51.460;7.008;2022-11-04T09:08:37;12.10;56.50
27534;DHT22;14973;51.460;7.008;2022-11-04T09:11:08;12.10;57.30
27534;DHT22;14973;51.460;7.008;2022-11-04T09:13:35;12.00;60.50
27534;DHT22;14973;51.460;7.008;2022-11-04T09:16:02;12.00;65.10
27534;DHT22;14973;51.460;7.008;2022-11-04T09:18:29;12.00;66.10
27534;DHT22;14973;51.460;7.008;2022-11-04T09:20:58;12.20;70.10
27534;DHT22;14973;51.460;7.008;2022-11-04T09:23:25;12.50;54.50
27534;DHT22;14973;51.460;7.008;2022-11-04T09:25:51;12.80;44.10
27534;DHT22;14973;51.460;7.008;2022-11-04T09:28:17;13.00;35.20
27534;DHT22;14973;51.460;7.008;2022-11-04T09:30:42;13.20;36.70
27534;DHT22;14973;51.460;7.008;2022-11-04T09:33:08;13.40;32.60
27534;DHT22;14973;51.460;7.008;2022-11-04T09:35:34;13.50;34.70
27534;DHT22;14973;51.460;7.008;2022-11-04T09:38:00;13.80;26.30
27534;DHT22;14973;51.460;7.008;2022-11-04T09:40:27;13.80;1.00
27534;DHT22;14973;51.460;7.008;2022-11-04T09:45:31;13.90;1.00
27534;DHT22;14973;51.460;7.008;2022-11-04T09:48:03;14.00;99.90
27534;DHT22;14973;51.460;7.008;2022-11-04T09:50:37;14.00;99.90
27534;DHT22;14973;51.460;7.008;2022-11-04T09:56:03;13.80;1.00
27534;DHT22;14973;51.460;7.008;2022-11-04T09:58:36;13.80;1.00
27534;DHT22;14973;51.460;7.008;2022-11-04T10:01:14;13.80;99.90
27534;DHT22;14973;51.460;7.008;2022-11-04T10:04:21;13.70;1.00
27534;DHT22;14973;51.460;7.008;2022-11-04T10:07:31;14.00;99.90
27534;DHT22;14973;51.460;7.008;2022-11-04T10:10:16;14.20;99.90
27534;DHT22;14973;51.460;7.008;2022-11-04T10:13:00;14.60;99.90
27534;DHT22;14973;51.460;7.008;2022-11-04T10:15:55;14.80;99.90
27534;DHT22;14973;51.460;7.008;2022-11-04T10:21:45;15.00;1.00
27534;DHT22;14973;51.460;7.008;2022-11-04T10:29:44;15.00;99.90
27534;DHT22;14973;51.460;7.008;2022-11-04T10:32:23;15.20;99.90
27534;DHT22;14973;51.460;7.008;2022-11-04T10:35:03;15.60;1.00
27534;DHT22;14973;51.460;7.008;2022-11-04T10:37:30;15.70;99.90
27534;DHT22;14973;51.460;7.008;2022-11-04T10:40:15;15.90;99.90
27534;DHT22;14973;51.460;7.008;2022-11-04T10:42:42;15.90;1.00
27534;DHT22;14973;51.460;7.008;2022-11-04T10:45:11;15.90;1.00
27534;DHT22;14973;51.460;7.008;2022-11-04T10:50:38;16.00;99.90
27534;DHT22;14973;51.460;7.008;2022-11-04T10:53:14;16.10;99.90
27534;DHT22;14973;51.460;7.008;2022-11-04T10:58:19;16.00;99.90
27534;DHT22;14973;51.460;7.008;2022-11-04T11:00:45;16.10;99.90
27534;DHT22;14973;51.460;7.008;2022-11-04T11:03:32;15.80;99.90
27534;DHT22;14973;51.460;7.008;2022-11-04T11:06:20;15.70;99.90
27534;DHT22;14973;51.460;7.008;2022-11-04T11:08:46;15.70;99.90
27534;DHT22;14973;51.460;7.008;2022-11-04T11:11:13;15.50;99.90
27534;DHT22;14973;51.460;7.008;2022-11-04T11:13:43;15.60;99.90
27534;DHT22;14973;51.460;7.008;2022-11-04T11:16:11;15.80;99.90
27534;DHT22;14973;51.460;7.008;2022-11-04T11:18:37;15.50;99.90
27534;DHT22;14973;51.460;7.008;2022-11-04T11:21:13;15.50;99.90
27534;DHT22;14973;51.460;7.008;2022-11-04T11:23:49;15.50;99.90
27534;DHT22;14973;51.460;7.008;2022-11-04T11:26:29;15.60;99.90
27534;DHT22;14973;51.460;7.008;2022-11-04T11:28:57;15.30;99.90
27534;DHT22;14973;51.460;7.008;2022-11-04T11:31:35;15.40;1.00
27534;DHT22;14973;51.460;7.008;2022-11-04T11:34:13;15.30;1.00
27534;DHT22;14973;51.460;7.008;2022-11-04T11:36:40;15.30;1.00
27534;DHT22;14973;51.460;7.008;2022-11-04T11:39:16;15.30;99.90
27534;DHT22;14973;51.460;7.008;2022-11-04T11:41:53;15.30;1.00
27534;DHT22;14973;51.460;7.008;2022-11-04T11:44:27;15.20;99.90
27534;DHT22;14973;51.460;7.008;2022-11-04T11:46:59;15.20;1.00
27534;DHT22;14973;51.460;7.008;2022-11-04T11:49:34;15.00;1.00
27534;DHT22;14973;51.460;7.008;2022-11-04T11:54:50;15.20;99.90
27534;DHT22;14973;51.460;7.008;2022-11-04T12:00:13;15.10;99.90
27534;DHT22;14973;51.460;7.008;2022-11-04T12:05:29;15.10;1.00
27534;DHT22;14973;51.460;7.008;2022-11-04T12:11:12;15.00;99.90
27534;DHT22;14973;51.460;7.008;2022-11-04T12:14:45;14.80;1.00
27534;DHT22;14973;51.460;7.008;2022-11-04T12:16:55;14.80;99.90
27534;DHT22;14973;51.460;7.008;2022-11-04T12:19:46;14.70;1.00
27534;DHT22;14973;51.460;7.008;2022-11-04T12:25:10;14.40;99.90
27534;DHT22;14973;51.460;7.008;2022-11-04T12:27:47;14.20;99.90
27534;DHT22;14973;51.460;7.008;2022-11-04T12:30:22;14.20;99.90
27534;DHT22;14973;51.460;7.008;2022-11-04T12:33:16;14.20;1.00
27534;DHT22;14973;51.460;7.008;2022-11-04T12:38:35;14.20;99.90
27534;DHT22;14973;51.460;7.008;2022-11-04T12:46:58;14.10;1.00
27534;DHT22;14973;51.460;7.008;2022-11-04T12:55:21;14.30;92.50
27534;DHT22;14973;51.460;7.008;2022-11-04T13:00:37;14.70;99.90
27534;DHT22;14973;51.460;7.008;2022-11-04T13:06:04;14.70;51.30
27534;DHT22;14973;51.460;7.008;2022-11-04T13:08:39;14.70;5.00
27534;DHT22;14973;51.460;7.008;2022-11-04T13:11:19;14.80;99.90
27534;DHT22;14973;51.460;7.008;2022-11-04T13:13:55;14.80;1.00
27534;DHT22;14973;51.460;7.008;2022-11-04T13:16:21;14.90;1.00
27534;DHT22;14973;51.460;7.008;2022-11-04T13:18:48;14.90;7.90
27534;DHT22;14973;51.460;7.008;2022-11-04T13:21:20;15.00;1.00
27534;DHT22;14973;51.460;7.008;2022-11-04T13:23:56;15.00;1.00
27534;DHT22;14973;51.460;7.008;2022-11-04T13:26:23;15.10;99.90
27534;DHT22;14973;51.460;7.008;2022-11-04T13:29:14;15.10;99.90
27534;DHT22;14973;51.460;7.008;2022-11-04T13:31:45;15.10;1.00
27534;DHT22;14973;51.460;7.008;2022-11-04T13:34:21;15.10;99.90
27534;DHT22;14973;51.460;7.008;2022-11-04T13:37:02;15.00;1.00
27534;DHT22;14973;51.460;7.008;2022-11-04T13:39:46;14.80;99.90
27534;DHT22;14973;51.460;7.008;2022-11-04T13:44:53;14.60;16.20
27534;DHT22;14973;51.460;7.008;2022-11-04T13:47:30;14.50;1.00
27534;DHT22;14973;51.460;7.008;2022-11-04T13:49:58;14.40;79.30
27534;DHT22;14973;51.460;7.008;2022-11-04T13:52:27;14.40;99.90
27534;DHT22;14973;51.460;7.008;2022-11-04T13:55:01;14.30;99.90
27534;DHT22;14973;51.460;7.008;2022-11-04T13:57:54;14.20;1.00
27534;DHT22;14973;51.460;7.008;2022-11-04T14:02:56;14.10;99.90
27534;DHT22;14973;51.460;7.008;2022-11-04T14:10:45;13.90;1.00
27534;DHT22;14973;51.460;7.008;2022-11-04T14:16:11;13.90;1.00
27534;DHT22;14973;51.460;7.008;2022-11-04T14:18:40;13.90;1.00
27534;DHT22;14973;51.460;7.008;2022-11-04T14:23:42;13.90;1.00
27534;DHT22;14973;51.460;7.008;2022-11-04T14:26:10;13.80;1.00
27534;DHT22;14973;51.460;7.008;2022-11-04T14:28:38;13.80;1.00
27534;DHT22;14973;51.460;7.008;2022-11-04T14:31:10;13.80;1.00
27534;DHT22;14973;51.460;7.008;2022-11-04T14:41:52;13.70;1.00
27534;DHT22;14973;51.460;7.008;2022-11-04T14:46:50;13.70;1.00
27534;DHT22;14973;51.460;7.008;2022-11-04T14:49:51;13.70;1.00
27534;DHT22;14973;51.460;7.008;2022-11-04T14:52:34;13.60;1.00
27534;DHT22;14973;51.460;7.008;2022-11-04T14:55:04;13.60;1.00
27534;DHT22;14973;51.460;7.008;2022-11-04T14:57:48;13.50;1.00
27534;DHT22;14973;51.460;7.008;2022-11-04T15:00:36;13.50;1.00
27534;DHT22;14973;51.460;7.008;2022-11-04T15:03:12;13.50;1.00
27534;DHT22;14973;51.460;7.008;2022-11-04T15:05:38;13.50;1.00
27534;DHT22;14973;51.460;7.008;2022-11-04T15:08:24;13.50;99.90
27534;DHT22;14973;51.460;7.008;2022-11-04T15:10:50;13.30;1.00
27534;DHT22;14973;51.460;7.008;2022-11-04T15:13:19;13.30;1.00
27534;DHT22;14973;51.460;7.008;2022-11-04T15:15:46;13.30;1.00
27534;DHT22;14973;51.460;7.008;2022-11-04T15:18:18;13.30;1.00
27534;DHT22;14973;51.460;7.008;2022-11-04T15:20:50;13.20;1.00
27534;DHT22;14973;51.460;7.008;2022-11-04T15:23:26;13.10;1.00
27534;DHT22;14973;51.460;7.008;2022-11-04T15:25:53;13.00;1.00
27534;DHT22;14973;51.460;7.008;2022-11-04T15:28:32;12.90;1.00
27534;DHT22;14973;51.460;7.008;2022-11-04T15:31:03;12.90;1.00
27534;DHT22;14973;51.460;7.008;2022-11-04T15:33:29;12.80;1.00
27534;DHT22;14973;51.460;7.008;2022-11-04T15:35:57;12.70;1.00
27534;DHT22;14973;51.460;7.008;2022-11-04T15:38:25;12.60;1.00
27534;DHT22;14973;51.460;7.008;2022-11-04T15:40:53;12.50;5.90
27534;DHT22;14973;51.460;7.008;2022-11-04T15:43:19;12.50;6.10
27534;DHT22;14973;51.460;7.008;2022-11-04T15:48:28;12.50;1.00
27534;DHT22;14973;51.460;7.008;2022-11-04T15:51:14;12.40;6.30
27534;DHT22;14973;51.460;7.008;2022-11-04T15:53:52;12.30;9.90
27534;DHT22;14973;51.460;7.008;2022-11-04T15:56:22;12.40;20.60
27534;DHT22;14973;51.460;7.008;2022-11-04T15:58:49;12.30;24.40
27534;DHT22;14973;51.460;7.008;2022-11-04T16:01:17;12.30;16.10
27534;DHT22;14973;51.460;7.008;2022-11-04T16:03:51;12.30;18.30
27534;DHT22;14973;51.460;7.008;2022-11-04T16:06:35;12.20;26.60
27534;DHT22;14973;51.460;7.008;2022-11-04T16:09:20;12.10;27.10
27534;DHT22;14973;51.460;7.008;2022-11-04T16:12:13;12.00;37.40
27534;DHT22;14973;51.460;7.008;2022-11-04T16:14:50;12.00;39.50
27534;DHT22;14973;51.460;7.008;2022-11-04T16:17:17;11.90;45.40
27534;DHT22;14973;51.460;7.008;2022-11-04T16:19:51;11.70;52.40
27534;DHT22;14973;51.460;7.008;2022-11-04T16:24:55;11.50;58.00
27534;DHT22;14973;51.460;7.008;2022-11-04T16:27:22;11.40;72.00
27534;DHT22;14973;51.460;7.008;2022-11-04T16:30:07;11.30;76.40
27534;DHT22;14973;51.460;7.008;2022-11-04T16:35:16;11.20;86.00
27534;DHT22;14973;51.460;7.008;2022-11-04T16:37:42;11.10;91.40
27534;DHT22;14973;51.460;7.008;2022-11-04T16:40:08;11.00;92.30
27534;DHT22;14973;51.460;7.008;2022-11-04T16:42:34;11.00;93.10
27534;DHT22;14973;51.460;7.008;2022-11-04T16:45:02;10.90;95.60
27534;DHT22;14973;51.460;7.008;2022-11-04T16:47:29;10.80;96.80
27534;DHT22;14973;51.460;7.008;2022-11-04T16:49:59;10.80;98.80
27534;DHT22;14973;51.460;7.008;2022-11-04T16:52:25;10.70;99.90
27534;DHT22;14973;51.460;7.008;2022-11-04T16:54:52;10.60;99.90
27534;DHT22;14973;51.460;7.008;2022-11-04T16:57:21;10.50;99.90
27534;DHT22;14973;51.460;7.008;2022-11-04T16:59:46;10.40;99.90
27534;DHT22;14973;51.460;7.008;2022-11-04T17:02:27;10.30;99.90
27534;DHT22;14973;51.460;7.008;2022-11-04T17:04:55;10.30;99.90
27534;DHT22;14973;51.460;7.008;2022-11-04T17:07:21;10.20;99.90
27534;DHT22;14973;51.460;7.008;2022-11-04T17:09:47;10.20;99.90
27534;DHT22;14973;51.460;7.008;2022-11-04T17:12:12;10.10;99.90
27534;DHT22;14973;51.460;7.008;2022-11-04T17:14:38;10.10;99.90
27534;DHT22;14973;51.460;7.008;2022-11-04T17:17:04;10.10;99.90
27534;DHT22;14973;51.460;7.008;2022-11-04T17:19:31;10.00;99.90
27534;DHT22;14973;51.460;7.008;2022-11-04T17:21:58;10.10;99.90
27534;DHT22;14973;51.460;7.008;2022-11-04T17:24:24;10.20;99.90
27534;DHT22;14973;51.460;7.008;2022-11-04T17:26:50;10.10;99.90
27534;DHT22;14973;51.460;7.008;2022-11-04T17:29:16;10.20;99.90
27534;DHT22;14973;51.460;7.008;2022-11-04T17:31:41;10.20;99.90
27534;DHT22;14973;51.460;7.008;2022-11-04T17:34:07;10.30;99.90
27534;DHT22;14973;51.460;7.008;2022-11-04T17:36:33;10.30;99.90
27534;DHT22;14973;51.460;7.008;2022-11-04T17:38:59;10.30;99.90
27534;DHT22;14973;51.460;7.008;2022-11-04T17:41:25;10.40;99.90
27534;DHT22;14973;51.460;7.008;2022-11-04T17:44:09;10.40;99.90
27534;DHT22;14973;51.460;7.008;2022-11-04T17:46:34;10.50;99.90
27534;DHT22;14973;51.460;7.008;2022-11-04T17:49:23;10.50;99.90
27534;DHT22;14973;51.460;7.008;2022-11-04T17:51:51;10.50;99.90
27534;DHT22;14973;51.460;7.008;2022-11-04T17:54:18;10.40;99.90
27534;DHT22;14973;51.460;7.008;2022-11-04T17:56:44;10.50;99.90